Terminal Aerodrome Forecast
Issued by NWS

Home | Current Version | Previous Version | Text Only | Print | Product List | Glossary On
Versions: 1 2 3 4 5 6 7 8 9 10 11 12 13 14 15 16 17 18 19 20 21
000
FTUS42 KFFC 252330
TAFRYY
TAF
KRYY 252330Z 2600/2624 15005KT P6SM BKN070
     FM260300 15005KT P6SM VCSH OVC040
     FM260500 15007KT 6SM SHRA OVC035
     FM261000 16007KT 6SM -SHRA SCT012 BKN025
     FM261500 17010KT P6SM VCSH BKN025
     FM261800 19010KT P6SM VCSH BKN035
      AMD NOT SKED 2604/2612=

USA.gov is the U.S. government's official web portal to all federal, state and local government web resources and services.